Flight Track Log - Related Links

Times and Time Zones

All times are in EDT time to prevent confusion due to time zone crossing. See the KAP16 flight status page for this flight to view local times or setup timezone preferences in your user account.

Time Position Orientation Groundspeed Altitude Reporting Facility
EDT Latitude Longitude Course Direction KTS MPH feet Rate Location/Type
Tue 07:12:04 PM 38.7667 -90.3667 332° Northwest 107 123 1,500  Level Gateway (St. Louis) TRACON
Tue 07:13:10 PM 38.8000 -90.3833 339° North 118 136 2,400 787 Climbing Gateway (St. Louis) TRACON
Tue 07:14:06 PM 38.8358 -90.3828 North 127 146 3,100 763 Climbing Kansas City Center
Tue 07:15:08 PM 38.8669 -90.4069 329° Northwest 129 148 3,900 774 Climbing Kansas City Center
Tue 07:16:10 PM 38.8994 -90.4311 330° Northwest 133 153 4,700 677 Climbing Kansas City Center
Tue 07:17:00 PM 38.9116 -90.4806 332° Northwest  Level Estimated
Tue 07:17:12 PM 38.9328 -90.4572 329° Northwest 138 159 5,300  Level Kansas City Center
Tue 07:18:14 PM 38.9703 -90.4878 328° Northwest 136 157 6,000 532 Climbing Kansas City Center
Tue 07:19:16 PM 38.9989 -90.5117 327° Northwest 128 147 6,400 290 Climbing Kansas City Center
Tue 07:20:18 PM 39.0311 -90.5347 331° Northwest 130 150 6,600 145 Climbing Kansas City Center
Tue 07:21:20 PM 39.0678 -90.5581 334° Northwest 142 163 6,700  Climbing Kansas City Center
Tue 07:22:22 PM 39.1064 -90.5867 330° Northwest 155 178 6,600 -48 Descending Kansas City Center
Tue 07:23:24 PM 39.1436 -90.6119 332° Northwest 154 177 6,600  Level Kansas City Center
Tue 07:24:26 PM 39.1906 -90.6411 334° Northwest 156 180 6,600  Level Kansas City Center
Tue 07:25:28 PM 39.2253 -90.6664 331° Northwest 148 170 6,600  Level Kansas City Center
Tue 07:26:30 PM 39.2622 -90.6914 332° Northwest 149 171 6,600 -48 Level Kansas City Center
Tue 07:27:32 PM 39.2978 -90.7153 333° Northwest 145 167 6,500  Descending Kansas City Center
Tue 07:28:34 PM 39.3339 -90.7422 330° Northwest 148 170 6,600 48 Climbing Kansas City Center
Tue 07:29:36 PM 39.3689 -90.7664 332° Northwest 146 168 6,600  Level Kansas City Center
Tue 07:30:38 PM 39.4133 -90.7964 332° Northwest 149 171 6,600  Level Kansas City Center
Tue 07:31:40 PM 39.4508 -90.8208 333° Northwest 151 174 6,600  Level Kansas City Center
Tue 07:32:42 PM 39.4875 -90.8456 333° Northwest 149 171 6,600 -48 Level Kansas City Center
Tue 07:33:44 PM 39.5242 -90.8656 337° Northwest 146 168 6,500  Descending Kansas City Center
Tue 07:34:46 PM 39.5619 -90.8878 336° Northwest 147 169 6,600  Climbing Kansas City Center
Tue 07:35:48 PM 39.6000 -90.9103 336° Northwest 150 173 6,500 -97 Descending Kansas City Center

Login

Don't have an account? Register now (free) for customized features, flight alerts, and more!